createdAt,value
2019-02-24T00:35:11.755Z,0.67
2019-02-24T04:40:41.966Z,0.03
2019-02-24T04:40:42.538Z,0.05
2019-02-24T04:40:43.219Z,0.00
2019-02-24T04:40:43.740Z,0.05
2019-02-24T04:40:44.345Z,-0.09
2019-02-24T04:40:44.939Z,-0.09
2019-02-24T04:40:45.539Z,-0.01
2019-02-24T04:40:46.138Z,-0.08
2019-02-24T04:41:40.132Z,-0.04
2019-02-24T04:41:40.705Z,-0.05
2019-02-24T04:41:41.302Z,-0.11
2019-02-24T04:41:41.903Z,-0.01
2019-02-24T04:41:42.502Z,-0.08
2019-02-24T04:41:43.103Z,-0.01
2019-02-24T04:41:43.702Z,0.00
2019-02-24T04:42:37.678Z,-0.12
2019-02-24T04:42:38.254Z,-0.05
2019-02-24T04:42:38.853Z,-0.08
2019-02-24T04:42:39.451Z,-0.06
2019-02-24T04:42:40.051Z,-0.09
2019-02-24T04:42:40.652Z,-0.08
2019-02-24T04:42:41.251Z,-0.06
2019-02-24T04:43:47.422Z,0.02
2019-02-24T04:43:47.988Z,-0.11
2019-02-24T04:43:48.587Z,-0.04
2019-02-24T04:43:49.188Z,0.02
2019-02-24T04:43:49.786Z,-0.01
2019-02-24T04:43:50.386Z,-0.08
2019-02-24T04:43:50.985Z,0.02
2019-02-24T04:43:51.586Z,-0.08
2019-02-24T04:44:45.075Z,-0.11
2019-02-24T04:44:45.641Z,-0.15
2019-02-24T04:44:46.241Z,-0.13
2019-02-24T04:44:46.840Z,-0.13
2019-02-24T04:44:47.444Z,-0.06
2019-02-24T04:44:48.039Z,-0.15
2019-02-24T04:44:48.639Z,-0.06
2019-02-24T04:44:49.239Z,-0.12
2019-02-24T04:45:43.743Z,-0.16
2019-02-24T04:45:44.319Z,-0.05
2019-02-24T04:45:44.917Z,-0.11
2019-02-24T04:45:45.516Z,-0.13
2019-02-24T04:45:46.117Z,-0.06
2019-02-24T04:45:46.717Z,-0.11
2019-02-24T04:45:47.314Z,-0.16
2019-02-24T04:45:47.915Z,-0.06
2019-02-24T04:46:41.395Z,-0.13
2019-02-24T04:46:41.973Z,-0.09
2019-02-24T04:46:42.569Z,-0.13
2019-02-24T04:46:43.170Z,-0.13
2019-02-24T04:46:43.770Z,-0.06
2019-02-24T04:46:44.369Z,-0.08
2019-02-24T04:46:44.971Z,-0.13
2019-02-24T04:46:45.570Z,-0.01
2019-02-24T04:47:43.041Z,-0.11
2019-02-24T04:47:43.616Z,-0.11
2019-02-24T04:47:44.215Z,-0.09
2019-02-24T04:48:39.156Z,-0.01
2019-02-24T04:48:39.734Z,-0.09
2019-02-24T04:48:40.332Z,-0.08
2019-02-24T04:48:40.930Z,-0.08
2019-02-24T04:48:41.532Z,-0.13
2019-02-24T04:48:42.128Z,-0.05
2019-02-24T04:48:42.727Z,-0.01
2019-02-24T04:49:56.264Z,-0.12
2019-02-24T04:49:56.841Z,-0.16
2019-02-24T04:49:57.439Z,-0.04
2019-02-24T04:49:58.038Z,-0.05
2019-02-24T04:49:58.638Z,-0.15
2019-02-24T04:49:59.238Z,0.02
2019-02-24T04:49:59.836Z,-0.13
2019-02-24T04:50:00.436Z,-0.04
2019-02-24T04:50:53.916Z,-0.09
2019-02-24T04:50:54.495Z,-0.05
2019-02-24T04:50:55.091Z,-0.01
2019-02-24T04:50:55.692Z,-0.04
2019-02-24T04:50:56.291Z,-0.01
2019-02-24T04:50:56.894Z,-0.08
2019-02-24T04:50:57.492Z,0.02
2019-02-24T04:50:58.093Z,-0.08
2019-02-24T04:51:52.079Z,-0.01
2019-02-24T04:51:52.661Z,-0.01
2019-02-24T04:51:53.256Z,-0.09
2019-02-24T04:51:53.853Z,-0.01
2019-02-24T04:51:54.453Z,-0.01
2019-02-24T04:51:55.053Z,-0.11
2019-02-24T04:51:55.656Z,-0.04
2019-02-24T04:52:50.659Z,-0.08
2019-02-24T04:52:51.232Z,0.05
2019-02-24T04:52:51.826Z,0.06
2019-02-24T04:52:52.427Z,0.06
2019-02-24T04:52:53.027Z,-0.08
2019-02-24T04:52:53.626Z,-0.05
2019-02-24T04:53:47.595Z,0.03
2019-02-24T04:53:48.164Z,0.00
2019-02-24T04:53:48.762Z,0.02
2019-02-24T04:53:49.362Z,0.06
2019-02-24T04:53:49.968Z,0.13
2019-02-24T04:53:50.565Z,0.06
2019-02-24T04:53:51.162Z,0.06
2019-02-24T04:53:51.763Z,0.02
2019-02-24T04:54:46.268Z,0.05
2019-02-24T04:54:46.846Z,0.13
2019-02-24T04:54:47.437Z,0.12
2019-02-24T04:54:48.039Z,0.05
2019-02-24T04:54:48.637Z,0.13
2019-02-24T04:54:49.240Z,0.09
2019-02-24T04:54:49.835Z,0.12
2019-02-24T04:54:50.435Z,0.15
2019-02-24T04:55:44.937Z,0.15
2019-02-24T04:55:45.514Z,0.13
2019-02-24T04:55:46.117Z,0.15
2019-02-24T04:55:46.715Z,0.15
2019-02-24T04:55:47.313Z,0.15
2019-02-24T04:55:47.912Z,0.09
2019-02-24T04:55:48.512Z,0.12
2019-02-24T04:55:49.112Z,0.12
2019-02-24T04:56:42.592Z,0.12
2019-02-24T04:56:43.165Z,0.10
2019-02-24T04:56:43.764Z,0.10
2019-02-24T04:56:44.366Z,0.12
2019-02-24T04:56:44.965Z,0.10
2019-02-24T04:56:45.565Z,0.15
2019-02-24T04:56:46.164Z,0.10
2019-02-24T04:56:46.764Z,0.15
2019-02-24T04:57:43.318Z,0.13
2019-02-24T04:57:43.888Z,0.18
2019-02-24T04:57:44.491Z,0.12
2019-02-24T04:58:38.508Z,0.12
2019-02-24T04:58:39.083Z,0.10
2019-02-24T04:58:39.682Z,0.07
2019-02-24T04:58:40.282Z,0.09
2019-02-24T04:58:40.885Z,0.07
2019-02-24T04:58:41.481Z,0.13
2019-02-24T04:58:42.085Z,0.09
2019-02-24T04:59:35.554Z,0.10
2019-02-24T04:59:36.124Z,0.15
2019-02-24T04:59:36.720Z,0.07
2019-02-24T04:59:37.322Z,0.10
2019-02-24T04:59:37.920Z,0.09
2019-02-24T04:59:38.522Z,0.10
2019-02-24T04:59:39.121Z,0.13
2019-02-24T04:59:39.719Z,0.12
2019-02-24T05:00:35.758Z,0.16
2019-02-24T05:00:36.333Z,0.18
2019-02-24T05:00:36.933Z,0.13
2019-02-24T05:00:37.532Z,0.15
2019-02-24T05:00:38.133Z,0.12
2019-02-24T05:00:38.742Z,0.13
2019-02-24T05:01:33.718Z,0.16
2019-02-24T05:01:34.300Z,0.18
2019-02-24T05:01:34.891Z,0.10
2019-02-24T05:01:35.491Z,0.23
2019-02-24T05:01:36.093Z,0.15
2019-02-24T05:01:36.691Z,0.21
2019-02-24T05:01:37.292Z,0.12
2019-02-24T05:01:37.890Z,0.15
2019-02-24T05:02:31.368Z,0.20
2019-02-24T05:02:31.943Z,0.23
2019-02-24T05:02:32.546Z,0.21
2019-02-24T05:02:33.143Z,0.18
2019-02-24T05:02:33.749Z,0.18
2019-02-24T05:02:34.349Z,0.21
2019-02-24T05:02:34.945Z,0.23
2019-02-24T05:02:35.542Z,0.13
2019-02-24T05:03:29.021Z,0.20
2019-02-24T05:03:29.598Z,0.24
2019-02-24T05:03:30.194Z,0.23
2019-02-24T05:03:30.795Z,0.23
2019-02-24T05:03:31.398Z,0.20
2019-02-24T05:03:31.995Z,0.23
2019-02-24T05:03:32.594Z,0.21
2019-02-24T05:03:33.194Z,0.21
2019-02-24T05:04:26.674Z,0.28
2019-02-24T05:04:27.248Z,0.36
2019-02-24T05:04:27.846Z,0.25
2019-02-24T05:04:28.447Z,0.30
2019-02-24T05:04:29.048Z,0.24
2019-02-24T05:04:29.645Z,0.28
2019-02-24T05:04:30.246Z,0.25
2019-02-24T05:04:30.846Z,0.30
2019-02-24T05:05:24.324Z,0.36
2019-02-24T05:05:24.905Z,0.30
2019-02-24T05:05:25.499Z,0.28
2019-02-24T05:05:26.102Z,0.30
2019-02-24T05:05:26.747Z,0.30
2019-02-24T05:05:27.298Z,0.31
2019-02-24T05:05:27.898Z,0.28
2019-02-24T05:05:28.498Z,0.25
2019-02-24T05:06:24.536Z,0.30
2019-02-24T05:06:25.110Z,0.41
2019-02-24T05:06:25.708Z,0.28
2019-02-24T05:06:26.309Z,0.30
2019-02-24T05:06:26.910Z,0.38
2019-02-24T05:06:27.509Z,0.28
2019-02-24T05:07:21.473Z,0.36
2019-02-24T05:07:22.047Z,0.43
2019-02-24T05:07:22.644Z,0.30
2019-02-24T05:07:23.323Z,0.31
2019-02-24T05:07:23.845Z,0.38
2019-02-24T05:07:24.446Z,0.38
2019-02-24T05:07:25.044Z,0.31
2019-02-24T05:07:25.645Z,0.28
2019-02-24T05:08:20.658Z,0.34
2019-02-24T05:08:21.233Z,0.39
2019-02-24T05:08:21.831Z,0.34
2019-02-24T05:08:22.434Z,0.34
2019-02-24T05:08:23.032Z,0.34
2019-02-24T05:08:23.631Z,0.43
2019-02-24T05:09:18.106Z,0.36
2019-02-24T05:09:18.679Z,0.42
2019-02-24T05:09:19.278Z,0.33
2019-02-24T05:09:19.880Z,0.33
2019-02-24T05:09:20.478Z,0.36
2019-02-24T05:09:21.079Z,0.39
2019-02-24T05:09:21.684Z,0.33
2019-02-24T05:10:16.169Z,0.38
2019-02-24T05:10:16.741Z,0.43
2019-02-24T05:10:17.340Z,0.41
2019-02-24T05:10:17.942Z,0.42
2019-02-24T05:10:18.539Z,0.43
2019-02-24T05:10:19.139Z,0.43
2019-02-24T05:10:19.741Z,0.48
2019-02-24T05:10:20.340Z,0.42
2019-02-24T05:11:14.329Z,0.45
2019-02-24T05:11:14.904Z,0.43
2019-02-24T05:11:15.504Z,0.42
2019-02-24T05:11:16.103Z,0.46
2019-02-24T05:11:16.703Z,0.48
2019-02-24T05:11:17.304Z,0.45
2019-02-24T05:11:17.908Z,0.45
2019-02-24T05:12:12.904Z,0.41
2019-02-24T05:12:13.479Z,0.42
2019-02-24T05:12:14.078Z,0.45
2019-02-24T05:12:14.684Z,0.45
2019-02-24T05:12:15.279Z,0.45
2019-02-24T05:12:15.911Z,0.48
2019-02-24T05:13:10.353Z,0.41
2019-02-24T05:13:10.926Z,0.46
2019-02-24T05:13:11.523Z,0.45
2019-02-24T05:13:12.125Z,0.43
2019-02-24T05:13:12.724Z,0.45
2019-02-24T05:13:13.325Z,0.41
2019-02-24T05:13:13.924Z,0.42
2019-02-24T05:14:07.390Z,0.43
2019-02-24T05:14:07.963Z,0.39
2019-02-24T05:14:08.562Z,0.48
2019-02-24T05:14:09.163Z,0.42
2019-02-24T05:14:09.762Z,0.42
2019-02-24T05:14:10.364Z,0.43
2019-02-24T05:14:10.962Z,0.41
2019-02-24T05:14:11.561Z,0.43
2019-02-24T05:15:05.552Z,0.41
2019-02-24T05:15:06.126Z,0.33
2019-02-24T05:15:06.725Z,0.41
2019-02-24T05:15:07.325Z,0.38
2019-02-24T05:15:07.924Z,0.41
2019-02-24T05:15:08.525Z,0.39
2019-02-24T05:15:09.126Z,0.41
2019-02-24T05:16:02.589Z,0.39
2019-02-24T05:16:03.165Z,0.27
2019-02-24T05:16:03.774Z,0.42
2019-02-24T05:16:04.364Z,0.36
2019-02-24T05:16:04.963Z,0.41
2019-02-24T05:16:05.563Z,0.39
2019-02-24T05:16:06.164Z,0.43
2019-02-24T05:16:06.762Z,0.36
2019-02-24T05:17:01.267Z,0.36
2019-02-24T05:17:01.838Z,0.41
2019-02-24T05:17:02.438Z,0.41
2019-02-24T05:17:03.038Z,0.43
2019-02-24T05:17:03.637Z,0.41
2019-02-24T05:17:04.237Z,0.39
2019-02-24T05:17:04.838Z,0.39
2019-02-24T05:17:05.437Z,0.39
2019-02-24T05:17:58.917Z,0.49
2019-02-24T05:17:59.492Z,0.39
2019-02-24T05:18:00.092Z,0.43
2019-02-24T05:18:00.691Z,0.41
2019-02-24T05:18:01.289Z,0.45
2019-02-24T05:18:01.890Z,0.38
2019-02-24T05:18:02.492Z,0.42
2019-02-24T05:18:03.090Z,0.41
2019-02-24T05:18:57.080Z,0.46
2019-02-24T05:18:57.660Z,0.46
2019-02-24T05:18:58.258Z,0.41
2019-02-24T05:18:58.854Z,0.49
2019-02-24T05:18:59.455Z,0.46
2019-02-24T05:19:00.053Z,0.45
2019-02-24T05:19:00.653Z,0.48
2019-02-24T05:19:54.117Z,0.42
2019-02-24T05:19:54.696Z,0.45
2019-02-24T05:19:55.292Z,0.42
2019-02-24T05:19:55.892Z,0.48
2019-02-24T05:19:56.491Z,0.42
2019-02-24T05:19:57.091Z,0.48
2019-02-24T05:19:57.693Z,0.43
2019-02-24T05:19:58.290Z,0.41
2019-02-24T05:20:51.771Z,0.49
2019-02-24T05:20:52.344Z,0.45
2019-02-24T05:20:52.944Z,0.43
2019-02-24T05:20:53.544Z,0.45
2019-02-24T05:20:54.142Z,0.46
2019-02-24T05:20:54.743Z,0.42
2019-02-24T05:20:55.342Z,0.45
2019-02-24T05:20:55.943Z,0.43
2019-02-24T05:21:49.421Z,0.49
2019-02-24T05:21:49.995Z,0.34
2019-02-24T05:21:50.597Z,0.49
2019-02-24T05:21:51.196Z,0.38
2019-02-24T05:21:51.795Z,0.42
2019-02-24T05:21:52.396Z,0.45
2019-02-24T05:21:52.995Z,0.43
2019-02-24T05:21:53.593Z,0.45
2019-02-24T05:22:47.073Z,0.46
2019-02-24T05:22:47.651Z,0.52
2019-02-24T05:22:48.247Z,0.46
2019-02-24T05:22:48.848Z,0.42
2019-02-24T05:22:49.447Z,0.39
2019-02-24T05:22:50.046Z,0.41
2019-02-24T05:22:50.647Z,0.41
2019-02-24T05:22:51.251Z,0.49
2019-02-24T05:23:46.261Z,0.48
2019-02-24T05:23:46.834Z,0.46
2019-02-24T05:23:47.435Z,0.46
2019-02-24T05:23:48.034Z,0.52
2019-02-24T05:23:48.633Z,0.43
2019-02-24T05:23:49.234Z,0.46
2019-02-24T05:23:49.833Z,0.39
2019-02-24T05:24:43.298Z,0.46
2019-02-24T05:24:43.875Z,0.46
2019-02-24T05:24:44.472Z,0.45
2019-02-24T05:24:45.073Z,0.46
2019-02-24T05:24:45.673Z,0.45
2019-02-24T05:24:46.271Z,0.46
2019-02-24T05:24:46.872Z,0.48
2019-02-24T05:24:47.472Z,0.43
2019-02-24T05:25:40.947Z,0.42
2019-02-24T05:25:41.531Z,0.48
2019-02-24T05:25:42.123Z,0.45
2019-02-24T05:25:42.722Z,0.45
2019-02-24T05:25:43.323Z,0.43
2019-02-24T05:25:43.924Z,0.45
2019-02-24T05:25:44.526Z,0.43
2019-02-24T05:25:45.122Z,0.43
2019-02-24T05:26:39.626Z,0.46
2019-02-24T05:26:40.200Z,0.46
2019-02-24T05:26:40.799Z,0.51
2019-02-24T05:26:41.399Z,0.43
2019-02-24T05:26:41.998Z,0.51
2019-02-24T05:26:42.599Z,0.51
2019-02-24T05:26:43.198Z,0.42
2019-02-24T05:26:43.801Z,0.45
2019-02-24T05:27:37.839Z,0.46
2019-02-24T05:27:38.365Z,0.43
2019-02-24T05:27:38.962Z,0.42
2019-02-24T05:27:39.563Z,0.46
2019-02-24T05:27:40.162Z,0.46
2019-02-24T05:27:40.763Z,0.48
2019-02-24T05:27:41.364Z,0.41
2019-02-24T05:28:34.826Z,0.51
2019-02-24T05:28:35.402Z,0.41
2019-02-24T05:28:36.002Z,0.48
2019-02-24T05:28:36.600Z,0.45
2019-02-24T05:28:37.201Z,0.43
2019-02-24T05:28:37.803Z,0.39
2019-02-24T05:28:38.402Z,0.45
2019-02-24T05:28:39.000Z,0.46
2019-02-24T05:29:33.502Z,0.52
2019-02-24T05:29:34.077Z,0.45
2019-02-24T05:29:44.702Z,0.45
2019-02-24T05:29:44.725Z,0.43
2019-02-24T05:29:44.791Z,0.48
2019-02-24T05:29:45.078Z,0.39
2019-02-24T05:29:45.212Z,0.48
2019-02-24T05:29:45.414Z,0.43
2019-02-24T05:30:31.666Z,0.48
2019-02-24T05:30:32.240Z,0.42
2019-02-24T05:30:32.843Z,0.45
2019-02-24T05:30:33.438Z,0.41
2019-02-24T05:30:34.050Z,0.45
2019-02-24T05:30:34.638Z,0.41
2019-02-24T05:30:35.239Z,0.45
2019-02-24T05:31:28.701Z,0.48
2019-02-24T05:31:29.277Z,0.45
2019-02-24T05:31:29.881Z,0.45
2019-02-24T05:31:30.476Z,0.43
2019-02-24T05:31:31.076Z,0.43
2019-02-24T05:31:31.678Z,0.45
2019-02-24T05:31:32.277Z,0.45
2019-02-24T05:31:32.876Z,0.48
2019-02-24T05:32:34.858Z,0.45
2019-02-24T05:32:35.430Z,0.45
2019-02-24T05:32:36.027Z,0.46
2019-02-24T05:32:36.628Z,0.48
2019-02-24T05:32:37.228Z,0.48
2019-02-24T05:32:37.825Z,0.46
2019-02-24T05:32:38.425Z,0.43
2019-02-24T05:32:39.026Z,0.52
2019-02-24T05:32:39.625Z,0.52
2019-02-24T05:32:40.228Z,0.51
2019-02-24T05:32:40.824Z,0.42
2019-02-24T05:32:41.423Z,0.45
2019-02-24T05:33:35.883Z,0.48
2019-02-24T05:33:36.458Z,0.45
2019-02-24T05:33:37.057Z,0.42
2019-02-24T05:33:37.659Z,0.45
2019-02-24T05:33:38.263Z,0.45
2019-02-24T05:33:38.857Z,0.43
2019-02-24T05:33:39.455Z,0.51
2019-02-24T05:33:40.060Z,0.42
2019-02-24T05:34:33.536Z,0.45
2019-02-24T05:34:34.111Z,0.45
2019-02-24T05:34:34.711Z,0.48
2019-02-24T05:34:35.314Z,0.45
2019-02-24T05:34:35.911Z,0.45
2019-02-24T05:34:36.510Z,0.43
2019-02-24T05:34:37.119Z,0.42
2019-02-24T05:34:37.717Z,0.46
2019-02-24T05:35:31.701Z,0.45
2019-02-24T05:35:32.274Z,0.48
2019-02-24T05:35:32.876Z,0.46
2019-02-24T05:35:33.473Z,0.45
2019-02-24T05:35:34.072Z,0.42
2019-02-24T05:35:34.672Z,0.51
2019-02-24T05:35:35.273Z,0.46
2019-02-24T05:36:28.736Z,0.42
2019-02-24T05:36:31.345Z,0.48
2019-02-24T05:36:31.398Z,0.48
2019-02-24T05:36:31.433Z,0.39
2019-02-24T05:36:31.470Z,0.43
2019-02-24T05:36:31.713Z,0.51
2019-02-24T05:36:32.311Z,0.46
2019-02-24T05:36:32.917Z,0.42
2019-02-24T05:37:27.924Z,0.48
2019-02-24T05:37:28.500Z,0.41
2019-02-24T05:37:29.099Z,0.45
2019-02-24T05:37:29.698Z,0.46
2019-02-24T05:37:30.303Z,0.46
2019-02-24T05:37:30.899Z,0.43
2019-02-24T05:38:24.866Z,0.52
2019-02-24T05:38:25.435Z,0.42
2019-02-24T05:38:26.036Z,0.45
2019-02-24T05:38:26.633Z,0.43
2019-02-24T05:38:27.234Z,0.45
2019-02-24T05:38:27.834Z,0.48
2019-02-24T05:38:28.435Z,0.51
2019-02-24T05:38:29.032Z,0.42
2019-02-24T05:39:34.084Z,0.49
2019-02-24T05:39:34.659Z,0.43
2019-02-24T05:39:35.256Z,0.42
2019-02-24T05:39:35.857Z,0.45
2019-02-24T05:39:36.455Z,0.45
2019-02-24T05:39:37.055Z,0.45
2019-02-24T05:40:32.564Z,0.49
2019-02-24T05:40:33.130Z,0.49
2019-02-24T05:40:33.728Z,0.43
2019-02-24T05:40:34.330Z,0.43
2019-02-24T05:40:34.928Z,0.42
2019-02-24T05:40:35.527Z,0.49
2019-02-24T05:41:29.490Z,0.46
2019-02-24T05:41:30.065Z,0.49
2019-02-24T05:41:30.663Z,0.48
2019-02-24T05:41:31.263Z,0.42
2019-02-24T05:41:31.862Z,0.46
2019-02-24T05:41:32.462Z,0.42
2019-02-24T05:41:33.062Z,0.43
2019-02-24T05:41:33.666Z,0.45
2019-02-24T05:42:27.152Z,0.48
2019-02-24T05:42:27.716Z,0.43
2019-02-24T05:42:28.322Z,0.42
2019-02-24T05:42:28.915Z,0.41
2019-02-24T05:42:29.515Z,0.42
2019-02-24T05:42:30.114Z,0.42
2019-02-24T05:42:30.715Z,0.49
2019-02-24T05:42:31.313Z,0.48
2019-02-24T05:43:30.834Z,0.46
2019-02-24T05:43:31.408Z,0.41
2019-02-24T05:43:32.007Z,0.42
2019-02-24T05:43:32.608Z,0.42
2019-02-24T05:43:33.207Z,0.52
2019-02-24T05:43:33.806Z,0.51
2019-02-24T05:43:34.406Z,0.43
2019-02-24T05:43:35.006Z,0.45
2019-02-24T05:43:35.607Z,0.43
2019-02-24T05:43:36.205Z,0.45
2019-02-24T05:43:36.810Z,0.45
2019-02-24T05:43:37.405Z,0.48
2019-02-24T05:43:38.005Z,0.51
2019-02-24T05:43:38.605Z,0.45
2019-02-24T05:43:39.205Z,0.52
2019-02-24T05:43:39.806Z,0.41
2019-02-24T05:44:54.291Z,0.52
2019-02-24T05:44:54.869Z,0.48
2019-02-24T05:44:55.474Z,0.42
2019-02-24T05:44:56.084Z,0.39
2019-02-24T05:44:56.665Z,0.38
2019-02-24T05:44:57.267Z,0.41
2019-02-24T05:44:57.865Z,0.43
2019-02-24T05:44:58.462Z,0.46
2019-02-24T05:45:52.454Z,0.43
2019-02-24T05:45:53.031Z,0.45
2019-02-24T05:45:53.627Z,0.43
2019-02-24T05:45:54.232Z,0.49
2019-02-24T05:45:54.827Z,0.41
2019-02-24T05:45:55.427Z,0.48
2019-02-24T05:45:56.028Z,0.46
2019-02-24T05:46:50.515Z,0.48
2019-02-24T05:46:51.090Z,0.45
2019-02-24T05:46:51.690Z,0.38
2019-02-24T05:46:52.296Z,0.38
2019-02-24T05:46:52.887Z,0.45
2019-02-24T05:46:53.487Z,0.46
2019-02-24T05:46:54.087Z,0.42
2019-02-24T05:46:54.687Z,0.41
2019-02-24T05:47:48.175Z,0.46
2019-02-24T05:47:48.742Z,0.52
2019-02-24T05:47:49.342Z,0.43
2019-02-24T05:47:49.943Z,0.43
2019-02-24T05:47:50.541Z,0.39
2019-02-24T05:47:51.141Z,0.46
2019-02-24T05:47:51.743Z,0.42
2019-02-24T05:47:52.343Z,0.39
2019-02-24T05:48:45.818Z,0.43
2019-02-24T05:48:46.395Z,0.52
2019-02-24T05:48:46.993Z,0.49
2019-02-24T05:48:47.631Z,0.45
2019-02-24T05:48:48.193Z,0.39
2019-02-24T05:48:48.793Z,0.52
2019-02-24T05:48:49.392Z,0.58
2019-02-24T05:48:49.994Z,0.48
2019-02-24T05:49:43.474Z,0.58
2019-02-24T05:49:44.046Z,0.42
2019-02-24T05:49:44.646Z,0.53
2019-02-24T05:49:45.321Z,0.57
2019-02-24T05:49:45.844Z,0.61
2019-02-24T05:49:46.446Z,0.51
2019-02-24T05:49:47.046Z,0.57
2019-02-24T05:49:47.644Z,0.60
2019-02-24T05:50:42.146Z,0.42
2019-02-24T05:50:42.720Z,0.42
2019-02-24T05:50:43.319Z,0.58
2019-02-24T05:50:43.922Z,0.58
2019-02-24T05:50:44.519Z,0.57
2019-02-24T05:50:45.118Z,0.60
2019-02-24T05:50:45.722Z,0.57
2019-02-24T05:50:46.318Z,0.49
2019-02-24T05:51:40.309Z,0.42
2019-02-24T05:51:40.885Z,0.52
2019-02-24T05:51:41.484Z,0.45
2019-02-24T05:51:42.086Z,0.48
2019-02-24T05:51:42.681Z,0.60
2019-02-24T05:51:43.299Z,0.61
2019-02-24T05:51:43.881Z,0.52
2019-02-24T05:52:44.924Z,0.39
2019-02-24T05:52:45.499Z,0.51
2019-02-24T05:52:46.098Z,0.46
2019-02-24T05:52:46.699Z,0.52
2019-02-24T05:52:47.302Z,0.46
2019-02-24T05:52:47.931Z,0.60
2019-02-24T05:52:48.526Z,0.51
2019-02-24T05:52:49.147Z,0.48
2019-02-24T05:52:49.696Z,0.53
2019-02-24T05:52:50.327Z,0.48
2019-02-24T05:52:50.952Z,0.58
2019-02-24T05:52:51.506Z,0.61
2019-02-24T05:53:45.034Z,0.53
2019-02-24T05:53:45.613Z,0.57
2019-02-24T05:53:46.209Z,0.52
2019-02-24T05:53:46.808Z,0.57
2019-02-24T05:53:47.407Z,0.49
2019-02-24T05:53:48.007Z,0.51
2019-02-24T05:53:48.608Z,0.60
2019-02-24T05:53:49.207Z,0.51
2019-02-24T05:54:42.687Z,0.52
2019-02-24T05:54:43.260Z,0.53
2019-02-24T05:54:43.859Z,0.57
2019-02-24T05:54:44.461Z,0.57
2019-02-24T05:54:45.063Z,0.62
2019-02-24T05:54:45.659Z,0.57
2019-02-24T05:54:46.260Z,0.57
2019-02-24T05:54:46.859Z,0.52
2019-02-24T05:55:40.337Z,0.60
2019-02-24T05:55:40.912Z,0.58
2019-02-24T05:55:41.512Z,0.61
2019-02-24T05:55:42.120Z,0.53
2019-02-24T05:55:42.710Z,0.60
2019-02-24T05:55:43.313Z,0.57
2019-02-24T05:55:43.917Z,0.61
2019-02-24T05:55:44.511Z,0.53
2019-02-24T05:56:37.989Z,0.60
2019-02-24T05:56:38.562Z,0.58
2019-02-24T05:56:39.163Z,0.57
2019-02-24T05:56:39.765Z,0.60
2019-02-24T05:56:40.369Z,0.61
2019-02-24T05:56:41.019Z,0.62
2019-02-24T05:56:41.561Z,0.53
2019-02-24T05:56:42.161Z,0.53
2019-02-24T05:57:36.664Z,0.61
2019-02-24T05:57:37.240Z,0.60
2019-02-24T05:57:37.840Z,0.53
2019-02-24T05:57:38.438Z,0.61
2019-02-24T05:57:39.038Z,0.60
2019-02-24T05:57:39.639Z,0.57
2019-02-24T05:57:40.239Z,0.61
2019-02-24T05:57:40.839Z,0.58
2019-02-24T05:58:35.851Z,0.52
2019-02-24T05:58:36.429Z,0.60
2019-02-24T05:58:37.031Z,0.60
2019-02-24T05:58:37.633Z,0.52
2019-02-24T05:58:38.227Z,0.61
2019-02-24T05:58:38.827Z,0.57
2019-02-24T05:59:55.219Z,0.52
2019-02-24T05:59:55.245Z,0.60
2019-02-24T05:59:55.360Z,0.60
2019-02-24T05:59:55.388Z,0.61
2019-02-24T05:59:55.423Z,0.58
2019-02-24T05:59:55.426Z,0.61
2019-02-24T05:59:55.445Z,0.60
2019-02-24T05:59:55.624Z,0.60
2019-02-24T05:59:55.722Z,0.57
2019-02-24T05:59:56.284Z,0.57
2019-02-24T05:59:56.892Z,0.60
2019-02-24T06:00:51.842Z,0.60
2019-02-24T06:00:52.416Z,0.58
2019-02-24T06:00:53.015Z,0.60
2019-02-24T06:00:53.614Z,0.60
2019-02-24T06:00:54.226Z,0.60
2019-02-24T06:00:54.813Z,0.62
2019-02-24T06:00:55.417Z,0.57
2019-02-24T06:02:09.809Z,0.61
2019-02-24T06:02:10.342Z,0.65
2019-02-24T06:02:10.941Z,0.60
2019-02-24T06:02:11.541Z,0.58
2019-02-24T06:02:12.144Z,0.62
2019-02-24T06:02:12.741Z,0.62
2019-02-24T06:03:08.248Z,0.53
2019-02-24T06:03:08.816Z,0.60
2019-02-24T06:03:09.413Z,0.62
2019-02-24T06:03:10.018Z,0.60
2019-02-24T06:03:10.611Z,0.62
2019-02-24T06:03:11.219Z,0.60
2019-02-24T06:04:05.174Z,0.61
2019-02-24T06:04:05.750Z,0.57
2019-02-24T06:04:06.350Z,0.65
2019-02-24T06:04:06.950Z,0.60
2019-02-24T06:04:07.549Z,0.61
2019-02-24T06:04:08.148Z,0.64
2019-02-24T06:04:08.748Z,0.65
2019-02-24T06:04:09.347Z,0.60
2019-02-24T06:05:37.962Z,0.61
2019-02-24T06:05:38.522Z,0.64
2019-02-24T06:05:39.125Z,0.58
2019-02-24T06:05:39.721Z,0.60
2019-02-24T06:05:40.324Z,0.60
2019-02-24T06:05:40.922Z,0.68
2019-02-24T06:05:41.522Z,0.61
2019-02-24T06:05:42.127Z,0.61
2019-02-24T06:05:42.722Z,0.61
2019-02-24T06:05:43.319Z,0.61
2019-02-24T06:05:43.923Z,0.70
2019-02-24T06:05:44.519Z,0.68
2019-02-24T06:05:45.119Z,0.60
2019-02-24T06:05:45.718Z,0.62
2019-02-24T06:05:46.317Z,0.57
2019-02-24T06:05:46.921Z,0.58
2019-02-24T06:06:40.928Z,0.58
2019-02-24T06:06:41.499Z,0.65
2019-02-24T06:06:42.142Z,0.64
2019-02-24T06:06:42.700Z,0.64
2019-02-24T06:06:43.301Z,0.57
2019-02-24T06:06:43.898Z,0.65
2019-02-24T06:06:44.507Z,0.62
2019-02-24T06:07:37.967Z,0.62
2019-02-24T06:07:38.538Z,0.65
2019-02-24T06:07:39.137Z,0.61
2019-02-24T06:07:39.741Z,0.64
2019-02-24T06:07:40.337Z,0.64
2019-02-24T06:07:40.938Z,0.64
2019-02-24T06:07:41.537Z,0.61
2019-02-24T06:07:42.137Z,0.65
2019-02-24T06:09:54.749Z,0.64
2019-02-24T06:09:55.247Z,0.62
2019-02-24T06:09:55.846Z,0.64
2019-02-24T06:09:56.446Z,0.64
2019-02-24T06:09:57.054Z,0.65
2019-02-24T06:09:57.647Z,0.64
2019-02-24T06:09:58.250Z,0.60
2019-02-24T06:09:58.846Z,0.61
2019-02-24T06:09:59.448Z,0.64
2019-02-24T06:10:00.054Z,0.65
2019-02-24T06:10:00.645Z,0.64
2019-02-24T06:12:20.781Z,0.67
2019-02-24T06:12:21.278Z,0.64
2019-02-24T06:12:21.877Z,0.60
2019-02-24T06:12:22.479Z,0.70
2019-02-24T06:12:23.076Z,0.60
2019-02-24T06:13:17.117Z,0.58
2019-02-24T06:13:17.690Z,0.62
2019-02-24T06:13:18.289Z,0.64
2019-02-24T06:13:18.892Z,0.60
2019-02-24T06:13:19.490Z,0.57
2019-02-24T06:13:20.092Z,0.71
2019-02-24T06:13:20.693Z,0.57
2019-02-24T06:14:14.156Z,0.60
2019-02-24T06:14:14.726Z,0.67
2019-02-24T06:14:15.325Z,0.70
2019-02-24T06:14:15.926Z,0.61
2019-02-24T06:14:16.524Z,0.57
2019-02-24T06:14:17.124Z,0.58
2019-02-24T06:14:17.724Z,0.62
2019-02-24T06:14:18.322Z,0.58
2019-02-24T06:16:40.639Z,0.61
2019-02-24T06:16:41.212Z,0.61
2019-02-24T06:16:41.817Z,0.61
2019-02-24T06:16:42.412Z,0.60
2019-02-24T06:16:43.011Z,0.68
2019-02-24T06:16:43.608Z,0.61
2019-02-24T06:16:44.208Z,0.64
2019-02-24T06:16:44.808Z,0.70
2019-02-24T06:16:45.410Z,0.67
2019-02-24T06:16:46.014Z,0.64
2019-02-24T06:16:46.610Z,0.58
2019-02-24T06:16:47.206Z,0.65
2019-02-24T06:19:00.060Z,0.70
2019-02-24T06:19:00.630Z,0.58
2019-02-24T06:19:01.230Z,0.58
2019-02-24T06:19:01.829Z,0.67
2019-02-24T06:19:02.428Z,0.60
2019-02-24T06:19:03.027Z,0.61
2019-02-24T06:19:03.629Z,0.61
2019-02-24T06:19:04.230Z,0.57
2019-02-24T06:19:04.830Z,0.62
2019-02-24T06:19:05.428Z,0.62
2019-02-24T06:19:06.028Z,0.67
2019-02-24T06:19:06.628Z,0.60
2019-02-24T06:20:00.684Z,0.65
2019-02-24T06:20:01.253Z,0.67
2019-02-24T06:20:01.853Z,0.64
2019-02-24T06:20:02.452Z,0.68
2019-02-24T06:20:03.055Z,0.65
2019-02-24T06:20:03.650Z,0.64
2019-02-24T06:20:04.278Z,0.60
2019-02-24T06:20:04.851Z,0.68
2019-02-24T06:20:58.332Z,0.67
2019-02-24T06:20:58.902Z,0.60
2019-02-24T06:20:59.508Z,0.62
2019-02-24T06:21:00.102Z,0.62
2019-02-24T06:21:00.706Z,0.62
2019-02-24T06:21:01.301Z,0.61
2019-02-24T06:21:01.903Z,0.61
2019-02-24T06:21:02.500Z,0.67
2019-02-24T06:21:57.515Z,0.64
2019-02-24T06:21:58.090Z,0.65
2019-02-24T06:21:58.694Z,0.64
2019-02-24T06:21:59.292Z,0.53
2019-02-24T06:21:59.891Z,0.71
2019-02-24T06:22:00.489Z,0.58
2019-02-24T06:22:01.088Z,0.62
2019-02-24T06:22:54.554Z,0.57
2019-02-24T06:22:55.128Z,0.60
2019-02-24T06:22:55.727Z,0.70
2019-02-24T06:22:56.328Z,0.60
2019-02-24T06:22:56.931Z,0.67
2019-02-24T06:22:57.529Z,0.64
2019-02-24T06:22:58.127Z,0.60
2019-02-24T06:22:58.726Z,0.57
2019-02-24T06:23:53.227Z,0.62
2019-02-24T06:23:53.803Z,0.71
2019-02-24T06:23:54.402Z,0.67
2019-02-24T06:23:55.002Z,0.65
2019-02-24T06:23:55.604Z,0.68
2019-02-24T06:23:56.201Z,0.61
2019-02-24T06:23:56.804Z,0.62
2019-02-24T06:23:57.404Z,0.70
2019-02-24T06:24:52.415Z,0.60
2019-02-24T06:24:52.990Z,0.68
2019-02-24T06:24:53.591Z,0.60
2019-02-24T06:24:54.190Z,0.62
2019-02-24T06:24:54.789Z,0.60
2019-02-24T06:24:55.388Z,0.64
2019-02-24T06:25:54.375Z,0.64
2019-02-24T06:25:54.943Z,0.61
2019-02-24T06:25:55.544Z,0.65
2019-02-24T06:25:56.143Z,0.65
2019-02-24T06:25:56.743Z,0.58
2019-02-24T06:25:57.345Z,0.64
2019-02-24T06:25:57.942Z,0.64
2019-02-24T06:25:58.561Z,0.62
2019-02-24T06:25:59.139Z,0.57
2019-02-24T06:25:59.739Z,0.68
2019-02-24T06:26:00.339Z,0.61
2019-02-24T06:26:00.939Z,0.62
2019-02-24T06:26:01.537Z,0.60
2019-02-24T06:26:02.138Z,0.64